Time;durP1;ratioP1;P1;durP2;ratioP2;P2;SDS_P1;SDS_P2;PMS_P1;PMS_P2;Temp;Humidity;BMP_temperature;BMP_pressure;BME280_temperature;BME280_humidity;BME280_pressure;Samples;Min_cycle;Max_cycle;Signal;HPM_P1;HPM_P2
2023/08/16 00:02:10;;;;;;;5.50;3.37;;;;;;;;;;5055073;28;20507;-35
2023/08/16 00:04:36;;;;;;;4.83;3.30;;;;;;;;;;5055001;28;20263;-34
2023/08/16 00:07:01;;;;;;;5.68;3.03;;;;;;;;;;5055499;28;20338;-34
2023/08/16 00:09:27;;;;;;;6.07;3.53;;;;;;;;;;5054864;28;20017;-34
2023/08/16 00:11:52;;;;;;;6.97;3.30;;;;;;;;;;5054826;28;20060;-34
2023/08/16 00:14:17;;;;;;;6.23;3.40;;;;;;;;;;5054092;28;20029;-34
2023/08/16 00:16:43;;;;;;;9.43;3.40;;;;;;;;;;5054982;28;20373;-33
2023/08/16 00:19:08;;;;;;;8.23;3.40;;;;;;;;;;5054957;28;20021;-33
2023/08/16 00:21:33;;;;;;;6.83;3.57;;;;;;;;;;5054622;28;20017;-34
2023/08/16 00:23:58;;;;;;;6.20;3.47;;;;;;;;;;5053306;28;20259;-34
2023/08/16 00:26:24;;;;;;;5.68;3.38;;;;;;;;;;5054879;28;20020;-35
2023/08/16 00:28:49;;;;;;;6.13;3.50;;;;;;;;;;5054534;28;20017;-34
2023/08/16 00:31:14;;;;;;;8.27;3.58;;;;;;;;;;5054680;28;20258;-34
2023/08/16 00:33:40;;;;;;;5.35;3.47;;;;;;;;;;5054399;28;20009;-34
2023/08/16 00:36:06;;;;;;;7.78;3.53;;;;;;;;;;5054349;28;20021;-34
2023/08/16 00:38:31;;;;;;;6.20;3.40;;;;;;;;;;5054819;28;20029;-34
2023/08/16 00:40:57;;;;;;;5.70;3.30;;;;;;;;;;5054347;28;20450;-35
2023/08/16 00:43:22;;;;;;;7.55;3.42;;;;;;;;;;5054483;28;20244;-34
2023/08/16 00:45:48;;;;;;;6.07;3.20;;;;;;;;;;5054185;28;20127;-34
2023/08/16 00:48:13;;;;;;;5.38;3.05;;;;;;;;;;5054380;28;20019;-34
2023/08/16 00:50:39;;;;;;;6.97;3.05;;;;;;;;;;5054619;28;20372;-33
2023/08/16 00:53:05;;;;;;;4.03;2.95;;;;;;;;;;5036232;28;20474;-34
2023/08/16 00:55:31;;;;;;;8.70;2.95;;;;;;;;;;5053994;28;20021;-34
2023/08/16 00:57:56;;;;;;;5.05;3.10;;;;;;;;;;5054414;28;20364;-34
2023/08/16 01:00:22;;;;;;;5.75;2.80;;;;;;;;;;5054194;28;20468;-35
2023/08/16 01:02:47;;;;;;;5.90;2.90;;;;;;;;;;5054431;28;20104;-34
2023/08/16 01:05:12;;;;;;;5.88;3.38;;;;;;;;;;5053749;28;20021;-34
2023/08/16 01:07:38;;;;;;;5.57;3.10;;;;;;;;;;5054404;28;20111;-34
2023/08/16 01:10:03;;;;;;;6.10;2.87;;;;;;;;;;5052591;28;20021;-34
2023/08/16 01:12:36;;;;;;;6.90;3.00;;;;;;;;;;5053545;28;20276;-34
2023/08/16 01:15:12;;;;;;;10.23;3.50;;;;;;;;;;5054287;28;20021;-35
2023/08/16 01:17:38;;;;;;;7.40;3.30;;;;;;;;;;5053802;28;20025;-35
2023/08/16 01:20:07;;;;;;;5.50;3.05;;;;;;;;;;5052433;28;20103;-33
2023/08/16 01:22:50;;;;;;;7.68;3.22;;;;;;;;;;5053825;28;20051;-33
2023/08/16 01:25:23;;;;;;;7.15;3.20;;;;;;;;;;5053773;28;20055;-34
2023/08/16 01:27:51;;;;;;;4.95;3.20;;;;;;;;;;5053657;28;20028;-34
2023/08/16 01:30:16;;;;;;;6.03;3.50;;;;;;;;;;5053448;28;20104;-34
2023/08/16 01:32:42;;;;;;;5.88;3.00;;;;;;;;;;5053471;28;20095;-34
2023/08/16 01:35:07;;;;;;;7.38;3.13;;;;;;;;;;5053495;28;20021;-34
2023/08/16 01:37:32;;;;;;;6.20;3.00;;;;;;;;;;5053907;28;20032;-34
2023/08/16 01:39:59;;;;;;;7.28;3.30;;;;;;;;;;5053456;28;20025;-34
2023/08/16 01:42:24;;;;;;;6.50;3.00;;;;;;;;;;5053662;28;20045;-34
2023/08/16 01:44:51;;;;;;;8.93;2.83;;;;;;;;;;5052132;28;20075;-34
2023/08/16 01:47:16;;;;;;;5.00;2.90;;;;;;;;;;5052580;28;20017;-41
2023/08/16 01:49:42;;;;;;;6.45;3.20;;;;;;;;;;5052314;28;20158;-34
2023/08/16 01:52:08;;;;;;;4.18;3.00;;;;;;;;;;5053474;28;20464;-34
2023/08/16 01:54:34;;;;;;;6.70;2.95;;;;;;;;;;5053202;28;20013;-35
2023/08/16 01:56:59;;;;;;;7.90;2.85;;;;;;;;;;5053149;28;20035;-34
2023/08/16 01:59:24;;;;;;;10.75;3.00;;;;;;;;;;5053756;28;20070;-34
2023/08/16 02:01:49;;;;;;;7.97;3.20;;;;;;;;;;5053218;28;20048;-34
2023/08/16 02:04:15;;;;;;;5.78;3.00;;;;;;;;;;5053169;28;20346;-34
2023/08/16 02:06:40;;;;;;;5.20;3.13;;;;;;;;;;5053368;28;20460;-35
2023/08/16 02:09:05;;;;;;;9.35;3.05;;;;;;;;;;5053421;28;20434;-34
2023/08/16 02:11:30;;;;;;;4.80;2.95;;;;;;;;;;5052951;28;20052;-34
2023/08/16 02:13:56;;;;;;;12.48;3.50;;;;;;;;;;5053331;28;20017;-34
2023/08/16 02:16:23;;;;;;;6.53;3.30;;;;;;;;;;5053209;28;20024;-34
2023/08/16 02:18:48;;;;;;;8.82;3.30;;;;;;;;;;5053292;28;20376;-34
2023/08/16 02:21:13;;;;;;;5.88;3.05;;;;;;;;;;5053276;28;20020;-35
2023/08/16 02:23:39;;;;;;;6.97;3.95;;;;;;;;;;5052969;28;20119;-34
2023/08/16 02:26:04;;;;;;;7.85;3.30;;;;;;;;;;5052943;28;20092;-34
2023/08/16 02:28:29;;;;;;;5.20;3.42;;;;;;;;;;5051658;28;20075;-34
2023/08/16 02:31:01;;;;;;;8.38;3.55;;;;;;;;;;5052834;28;20500;-34
2023/08/16 02:33:27;;;;;;;6.60;3.22;;;;;;;;;;5053433;28;20021;-34
2023/08/16 02:35:52;;;;;;;8.02;3.30;;;;;;;;;;5052899;28;20021;-34
2023/08/16 02:38:18;;;;;;;8.87;3.50;;;;;;;;;;5057154;28;20120;-34
2023/08/16 02:40:43;;;;;;;6.30;3.40;;;;;;;;;;5056852;28;20255;-34
2023/08/16 02:43:08;;;;;;;8.47;3.60;;;;;;;;;;5057054;28;20028;-35
2023/08/16 02:45:34;;;;;;;6.23;3.60;;;;;;;;;;5056768;28;20745;-34
2023/08/16 02:47:59;;;;;;;7.95;3.90;;;;;;;;;;5056424;28;20338;-34
2023/08/16 02:50:25;;;;;;;10.48;3.80;;;;;;;;;;5056684;28;20467;-34
2023/08/16 02:52:50;;;;;;;5.95;3.55;;;;;;;;;;5056357;28;20017;-34
2023/08/16 02:55:15;;;;;;;5.77;3.87;;;;;;;;;;5056400;28;20078;-34
2023/08/16 02:57:40;;;;;;;6.37;3.63;;;;;;;;;;5056228;28;20630;-34
2023/08/16 03:00:09;;;;;;;5.93;3.33;;;;;;;;;;5056185;28;20282;-33
2023/08/16 03:02:34;;;;;;;8.43;3.50;;;;;;;;;;5056895;28;20343;-34
2023/08/16 03:04:59;;;;;;;7.07;3.67;;;;;;;;;;5056307;28;20037;-33
2023/08/16 03:07:25;;;;;;;6.13;3.30;;;;;;;;;;5056091;28;20028;-34
2023/08/16 03:09:50;;;;;;;6.37;3.40;;;;;;;;;;5056330;28;20013;-34
2023/08/16 03:12:15;;;;;;;5.77;3.13;;;;;;;;;;5055830;28;20299;-34
2023/08/16 03:14:40;;;;;;;6.93;3.40;;;;;;;;;;5055930;28;20259;-35
2023/08/16 03:17:05;;;;;;;7.32;3.42;;;;;;;;;;5055777;28;20056;-34
2023/08/16 03:19:31;;;;;;;7.32;3.33;;;;;;;;;;5055818;28;20017;-34
2023/08/16 03:21:56;;;;;;;9.65;3.47;;;;;;;;;;5056390;28;20086;-34
2023/08/16 03:24:22;;;;;;;7.13;3.50;;;;;;;;;;5056061;28;20083;-34
2023/08/16 03:26:47;;;;;;;5.25;3.22;;;;;;;;;;5055718;28;20013;-35
2023/08/16 03:29:13;;;;;;;7.85;3.60;;;;;;;;;;5054393;28;20036;-36
2023/08/16 03:31:38;;;;;;;9.80;4.00;;;;;;;;;;5055841;28;20025;-34
2023/08/16 03:34:05;;;;;;;7.53;4.10;;;;;;;;;;5055603;28;20021;-45
2023/08/16 03:36:30;;;;;;;5.43;3.63;;;;;;;;;;5055767;28;20251;-34
2023/08/16 03:38:55;;;;;;;6.50;4.00;;;;;;;;;;5055491;28;20032;-34
2023/08/16 03:41:20;;;;;;;7.03;3.70;;;;;;;;;;5055729;28;20021;-35
2023/08/16 03:43:46;;;;;;;5.20;3.70;;;;;;;;;;5055707;28;20264;-35
2023/08/16 03:46:11;;;;;;;8.30;4.53;;;;;;;;;;5055594;28;20079;-34
2023/08/16 03:48:36;;;;;;;8.50;4.20;;;;;;;;;;5055168;28;20112;-35
2023/08/16 03:51:01;;;;;;;7.30;4.13;;;;;;;;;;5055547;28;20754;-38
2023/08/16 03:53:27;;;;;;;11.13;4.18;;;;;;;;;;5055515;28;20033;-34
2023/08/16 03:55:56;;;;;;;7.75;4.47;;;;;;;;;;5055415;28;20032;-35
2023/08/16 03:58:21;;;;;;;9.60;4.05;;;;;;;;;;5055106;28;20086;-34
2023/08/16 04:00:47;;;;;;;5.70;4.07;;;;;;;;;;5055647;28;20017;-35
2023/08/16 04:03:12;;;;;;;7.82;4.07;;;;;;;;;;5055630;28;20509;-34
2023/08/16 04:05:37;;;;;;;7.70;4.43;;;;;;;;;;5055267;28;20502;-34
2023/08/16 04:08:03;;;;;;;6.87;4.37;;;;;;;;;;5055000;28;20256;-34
2023/08/16 04:10:28;;;;;;;6.20;4.38;;;;;;;;;;5054692;28;20263;-34
2023/08/16 04:12:54;;;;;;;6.70;3.80;;;;;;;;;;5055417;28;20033;-36
2023/08/16 04:15:19;;;;;;;8.18;4.20;;;;;;;;;;5055082;28;20029;-34
2023/08/16 04:17:44;;;;;;;8.47;4.10;;;;;;;;;;5054756;28;20031;-34
2023/08/16 04:20:10;;;;;;;7.70;4.20;;;;;;;;;;5054696;28;20272;-34
2023/08/16 04:22:35;;;;;;;8.05;4.10;;;;;;;;;;5055187;28;20294;-35
2023/08/16 04:25:01;;;;;;;8.15;3.20;;;;;;;;;;5055718;28;20048;-35
2023/08/16 04:27:26;;;;;;;6.60;3.20;;;;;;;;;;5055174;28;20404;-34
2023/08/16 04:29:51;;;;;;;7.55;3.65;;;;;;;;;;5054487;28;20021;-35
2023/08/16 04:32:17;;;;;;;7.60;4.00;;;;;;;;;;5055020;28;20116;-35
2023/08/16 04:34:42;;;;;;;8.97;3.93;;;;;;;;;;5054469;28;20660;-35
2023/08/16 04:37:07;;;;;;;7.07;3.33;;;;;;;;;;5054334;28;20282;-35
2023/08/16 04:39:32;;;;;;;12.43;3.73;;;;;;;;;;5054643;28;20247;-35
2023/08/16 04:41:57;;;;;;;5.20;3.40;;;;;;;;;;5054583;28;20709;-35
2023/08/16 04:44:23;;;;;;;6.72;3.33;;;;;;;;;;5054253;28;20058;-35
2023/08/16 04:46:49;;;;;;;9.43;3.33;;;;;;;;;;5054154;28;20033;-34
2023/08/16 04:49:15;;;;;;;7.72;3.53;;;;;;;;;;5054043;28;20025;-34
2023/08/16 04:51:40;;;;;;;7.55;3.47;;;;;;;;;;5054437;28;20022;-35
2023/08/16 04:54:07;;;;;;;4.90;3.30;;;;;;;;;;5054847;28;20025;-34
2023/08/16 04:56:32;;;;;;;5.25;3.38;;;;;;;;;;5054231;28;20044;-33
2023/08/16 04:58:57;;;;;;;6.77;3.27;;;;;;;;;;5053446;28;20021;-34
2023/08/16 05:01:22;;;;;;;7.20;3.90;;;;;;;;;;5054247;28;20306;-34
2023/08/16 05:03:51;;;;;;;9.85;4.40;;;;;;;;;;5054407;28;20601;-35
2023/08/16 05:06:17;;;;;;;9.25;3.78;;;;;;;;;;5054135;28;20456;-34
2023/08/16 05:08:42;;;;;;;4.93;3.30;;;;;;;;;;5054079;28;20017;-34
2023/08/16 05:11:07;;;;;;;5.87;3.20;;;;;;;;;;5054484;28;20527;-34
2023/08/16 05:13:33;;;;;;;5.85;3.22;;;;;;;;;;5054053;28;20260;-35
2023/08/16 05:15:58;;;;;;;6.43;3.63;;;;;;;;;;5053760;28;20048;-35
2023/08/16 05:18:23;;;;;;;6.37;3.93;;;;;;;;;;5053585;28;20017;-35
2023/08/16 05:20:48;;;;;;;9.73;3.83;;;;;;;;;;5053549;28;20256;-34
2023/08/16 05:23:13;;;;;;;9.23;4.10;;;;;;;;;;5054125;28;20248;-35
2023/08/16 05:25:39;;;;;;;8.73;3.90;;;;;;;;;;5053492;28;20661;-35
2023/08/16 05:28:04;;;;;;;10.17;5.10;;;;;;;;;;5054038;28;20360;-35
2023/08/16 05:30:29;;;;;;;7.60;4.97;;;;;;;;;;5053642;28;20259;-35
2023/08/16 05:32:55;;;;;;;7.90;5.22;;;;;;;;;;5053432;28;20017;-35
2023/08/16 05:35:20;;;;;;;8.48;5.28;;;;;;;;;;5054006;28;20028;-34
2023/08/16 05:37:45;;;;;;;12.40;4.73;;;;;;;;;;5054222;28;20096;-35
2023/08/16 05:40:11;;;;;;;9.07;5.10;;;;;;;;;;5053613;28;20027;-35
2023/08/16 05:42:36;;;;;;;8.10;5.43;;;;;;;;;;5053600;28;20108;-33
2023/08/16 05:45:01;;;;;;;10.27;5.30;;;;;;;;;;5053644;28;20017;-34
2023/08/16 05:47:26;;;;;;;13.77;5.80;;;;;;;;;;5053310;28;20310;-34
2023/08/16 05:49:51;;;;;;;12.33;5.93;;;;;;;;;;5053325;28;20335;-34
2023/08/16 05:52:16;;;;;;;9.93;5.70;;;;;;;;;;5051861;28;20397;-34
2023/08/16 05:54:42;;;;;;;9.93;6.10;;;;;;;;;;5053199;28;20259;-34
2023/08/16 05:57:07;;;;;;;8.27;5.40;;;;;;;;;;5053670;28;20060;-34
2023/08/16 05:59:32;;;;;;;8.87;5.70;;;;;;;;;;5053541;28;20252;-35
2023/08/16 06:01:57;;;;;;;7.47;5.67;;;;;;;;;;5053722;28;20029;-34
2023/08/16 06:04:22;;;;;;;8.83;4.50;;;;;;;;;;5053406;28;20470;-35
2023/08/16 06:06:49;;;;;;;6.93;4.07;;;;;;;;;;5053455;28;20109;-35
2023/08/16 06:09:14;;;;;;;6.25;4.03;;;;;;;;;;5053220;28;20033;-34
2023/08/16 06:11:39;;;;;;;10.83;4.30;;;;;;;;;;5054329;28;20075;-35
2023/08/16 06:14:04;;;;;;;6.00;3.50;;;;;;;;;;5057411;28;20260;-35
2023/08/16 06:16:29;;;;;;;7.37;3.80;;;;;;;;;;5056938;28;20067;-36
2023/08/16 06:18:56;;;;;;;6.33;3.83;;;;;;;;;;5057561;28;20243;-35
2023/08/16 06:21:21;;;;;;;6.28;3.50;;;;;;;;;;5056949;28;20021;-36
2023/08/16 06:23:47;;;;;;;6.83;3.53;;;;;;;;;;5057259;28;20009;-35
2023/08/16 06:26:13;;;;;;;7.38;3.90;;;;;;;;;;5057096;28;20282;-35
2023/08/16 06:28:38;;;;;;;6.90;3.37;;;;;;;;;;5057936;28;20401;-35
2023/08/16 06:31:03;;;;;;;7.53;3.73;;;;;;;;;;5056979;28;20024;-35
2023/08/16 06:33:30;;;;;;;7.70;3.72;;;;;;;;;;5057088;28;20655;-35
2023/08/16 06:35:55;;;;;;;6.95;3.67;;;;;;;;;;5057047;28;20377;-35
2023/08/16 06:38:21;;;;;;;7.87;3.67;;;;;;;;;;5056931;28;20092;-35
2023/08/16 06:40:46;;;;;;;5.38;3.15;;;;;;;;;;5056854;28;20032;-35
2023/08/16 06:43:11;;;;;;;10.35;4.22;;;;;;;;;;5056832;28;20017;-35
2023/08/16 06:45:37;;;;;;;7.93;3.38;;;;;;;;;;5056716;28;20023;-35
2023/08/16 06:48:03;;;;;;;8.37;3.50;;;;;;;;;;5056488;28;20024;-35
2023/08/16 06:50:28;;;;;;;9.13;3.75;;;;;;;;;;5056416;28;20033;-35
2023/08/16 06:52:53;;;;;;;6.57;3.30;;;;;;;;;;5056922;28;20024;-35
2023/08/16 06:55:19;;;;;;;7.97;3.10;;;;;;;;;;5056340;28;20358;-35
2023/08/16 06:57:44;;;;;;;7.00;3.10;;;;;;;;;;5056275;28;20478;-35
2023/08/16 07:00:11;;;;;;;8.07;3.00;;;;;;;;;;5056230;28;20024;-35
2023/08/16 07:02:36;;;;;;;9.10;3.13;;;;;;;;;;5056525;28;20012;-35
2023/08/16 07:05:01;;;;;;;6.80;3.23;;;;;;;;;;5056190;28;20376;-35
2023/08/16 07:07:27;;;;;;;10.00;3.33;;;;;;;;;;5056431;28;20021;-35
2023/08/16 07:09:52;;;;;;;12.57;3.30;;;;;;;;;;5056081;28;20447;-35
2023/08/16 07:12:17;;;;;;;7.83;3.10;;;;;;;;;;5056326;28;20056;-35
2023/08/16 07:14:42;;;;;;;10.13;3.33;;;;;;;;;;5056267;28;20020;-35
2023/08/16 07:17:08;;;;;;;8.60;3.30;;;;;;;;;;5055767;28;20112;-35
2023/08/16 07:19:33;;;;;;;11.70;3.08;;;;;;;;;;5056138;28;20017;-35
2023/08/16 07:21:58;;;;;;;11.23;2.70;;;;;;;;;;5055369;28;20052;-35
2023/08/16 07:24:23;;;;;;;6.23;2.60;;;;;;;;;;5056153;28;20015;-36
2023/08/16 07:26:48;;;;;;;7.47;2.67;;;;;;;;;;5055775;28;20017;-34
2023/08/16 07:29:14;;;;;;;4.37;2.00;;;;;;;;;;5055962;28;20475;-34
2023/08/16 07:31:39;;;;;;;4.50;2.03;;;;;;;;;;5055669;28;20380;-34
2023/08/16 07:34:04;;;;;;;4.03;2.03;;;;;;;;;;5055820;28;20410;-35
2023/08/16 07:36:29;;;;;;;4.17;1.80;;;;;;;;;;5055784;28;20352;-34
2023/08/16 07:38:55;;;;;;;7.28;2.40;;;;;;;;;;5055498;28;20487;-34
2023/08/16 07:41:20;;;;;;;7.47;2.37;;;;;;;;;;5055734;28;20028;-34
2023/08/16 07:43:45;;;;;;;5.72;2.10;;;;;;;;;;5055717;28;20283;-34
2023/08/16 07:46:10;;;;;;;5.63;2.00;;;;;;;;;;5055329;28;20025;-34
2023/08/16 07:48:35;;;;;;;5.03;1.90;;;;;;;;;;5055626;28;20094;-34
2023/08/16 07:51:01;;;;;;;5.83;1.80;;;;;;;;;;5055580;28;20025;-34
2023/08/16 07:53:26;;;;;;;4.13;1.67;;;;;;;;;;5055258;28;20023;-34
2023/08/16 07:55:51;;;;;;;4.88;1.52;;;;;;;;;;5055462;28;20092;-34
2023/08/16 07:58:16;;;;;;;4.80;1.70;;;;;;;;;;5055290;28;20025;-35
2023/08/16 08:00:42;;;;;;;4.23;1.47;;;;;;;;;;5055392;28;20016;-34
2023/08/16 08:03:09;;;;;;;4.60;1.40;;;;;;;;;;5055332;28;20021;-34
2023/08/16 08:05:35;;;;;;;4.47;1.73;;;;;;;;;;5054946;28;20092;-34
2023/08/16 08:08:00;;;;;;;5.13;1.40;;;;;;;;;;5054955;28;20052;-34
2023/08/16 08:10:25;;;;;;;6.10;1.52;;;;;;;;;;5054714;28;20032;-36
2023/08/16 08:12:51;;;;;;;7.80;1.50;;;;;;;;;;5054587;28;20053;-36
2023/08/16 08:15:16;;;;;;;6.27;1.80;;;;;;;;;;5054664;28;20295;-34
2023/08/16 08:17:41;;;;;;;4.73;1.90;;;;;;;;;;5054877;28;20110;-35
2023/08/16 08:20:08;;;;;;;6.10;1.90;;;;;;;;;;5054622;28;20263;-35
2023/08/16 08:22:33;;;;;;;4.35;1.80;;;;;;;;;;5054866;28;20024;-35
2023/08/16 08:24:58;;;;;;;5.20;2.00;;;;;;;;;;5054852;28;20017;-35
2023/08/16 08:27:23;;;;;;;5.03;1.87;;;;;;;;;;5054691;28;20079;-35
2023/08/16 08:29:48;;;;;;;4.90;1.93;;;;;;;;;;5054482;28;20029;-35
2023/08/16 08:32:14;;;;;;;6.87;2.00;;;;;;;;;;5054457;28;20024;-36
2023/08/16 08:34:39;;;;;;;3.90;1.43;;;;;;;;;;5053640;28;20025;-35
2023/08/16 08:37:04;;;;;;;7.03;2.03;;;;;;;;;;5054234;28;20287;-35
2023/08/16 08:39:30;;;;;;;4.20;1.48;;;;;;;;;;5054643;28;20095;-35
2023/08/16 08:41:55;;;;;;;5.22;1.83;;;;;;;;;;5054600;28;20021;-35
2023/08/16 08:44:21;;;;;;;4.67;1.70;;;;;;;;;;5054580;28;20416;-34
2023/08/16 08:46:47;;;;;;;4.20;1.65;;;;;;;;;;5054201;28;20247;-35
2023/08/16 08:49:14;;;;;;;6.82;1.48;;;;;;;;;;5054733;28;20021;-35
2023/08/16 08:51:39;;;;;;;6.35;1.52;;;;;;;;;;5054181;28;20045;-34
2023/08/16 08:54:04;;;;;;;4.07;1.60;;;;;;;;;;5054680;28;20517;-34
2023/08/16 08:56:30;;;;;;;11.38;1.98;;;;;;;;;;5054043;28;20248;-34
2023/08/16 08:58:56;;;;;;;6.47;1.60;;;;;;;;;;5053933;28;20060;-34
2023/08/16 09:01:23;;;;;;;3.35;1.60;;;;;;;;;;5054208;28;20017;-35
2023/08/16 09:03:49;;;;;;;4.78;1.60;;;;;;;;;;5054529;28;20451;-35
2023/08/16 09:06:15;;;;;;;5.65;1.67;;;;;;;;;;5053808;28;20020;-35
2023/08/16 09:08:41;;;;;;;9.70;2.28;;;;;;;;;;5053845;28;20020;-35
2023/08/16 09:11:06;;;;;;;9.43;1.85;;;;;;;;;;5053949;28;20549;-35
2023/08/16 09:13:32;;;;;;;4.47;1.60;;;;;;;;;;5054342;28;20021;-35
2023/08/16 09:15:59;;;;;;;6.57;1.40;;;;;;;;;;5053642;28;20025;-35
2023/08/16 09:18:26;;;;;;;3.83;1.50;;;;;;;;;;5053494;28;20028;-34
2023/08/16 09:20:52;;;;;;;6.93;1.75;;;;;;;;;;5053582;28;20021;-35
2023/08/16 09:23:18;;;;;;;5.07;1.50;;;;;;;;;;5053904;28;20077;-35
2023/08/16 09:25:44;;;;;;;5.72;1.70;;;;;;;;;;5054031;28;20460;-35
2023/08/16 09:28:10;;;;;;;6.07;1.23;;;;;;;;;;5053822;28;20033;-35
2023/08/16 09:30:36;;;;;;;4.47;1.50;;;;;;;;;;5053465;28;20344;-35
2023/08/16 09:33:01;;;;;;;3.35;1.50;;;;;;;;;;5053710;28;20095;-34
2023/08/16 09:35:30;;;;;;;6.75;1.42;;;;;;;;;;5053635;28;20464;-34
2023/08/16 09:37:56;;;;;;;5.10;1.40;;;;;;;;;;5053574;28;20021;-35
2023/08/16 09:40:21;;;;;;;3.60;1.60;;;;;;;;;;5053332;28;20025;-34
2023/08/16 09:42:47;;;;;;;4.93;1.80;;;;;;;;;;5053623;28;20074;-35
2023/08/16 09:45:12;;;;;;;5.43;1.80;;;;;;;;;;5053226;28;20251;-35
2023/08/16 09:47:44;;;;;;;5.10;1.45;;;;;;;;;;5053247;28;20343;-35
2023/08/16 09:50:10;;;;;;;3.15;1.40;;;;;;;;;;5053264;28;20021;-36
2023/08/16 09:52:36;;;;;;;6.60;1.55;;;;;;;;;;5053629;28;20111;-33
2023/08/16 09:55:01;;;;;;;3.70;1.33;;;;;;;;;;5053248;28;20055;-35
2023/08/16 09:57:27;;;;;;;5.55;1.70;;;;;;;;;;5052270;28;20059;-35
2023/08/16 09:59:52;;;;;;;5.20;1.50;;;;;;;;;;5051007;28;20464;-36
2023/08/16 10:02:18;;;;;;;3.63;1.45;;;;;;;;;;5051091;28;20025;-35
2023/08/16 10:04:44;;;;;;;5.22;1.65;;;;;;;;;;5051074;28;20013;-35
2023/08/16 10:07:10;;;;;;;6.97;1.63;;;;;;;;;;5051625;28;20040;-35
2023/08/16 10:09:36;;;;;;;3.33;1.33;;;;;;;;;;5052427;28;20483;-35
2023/08/16 10:12:04;;;;;;;4.22;1.50;;;;;;;;;;5052284;28;20053;-35
2023/08/16 10:14:30;;;;;;;5.03;1.20;;;;;;;;;;5053151;28;20025;-35
2023/08/16 10:17:00;;;;;;;5.88;1.60;;;;;;;;;;5052835;28;20396;-35
2023/08/16 10:19:28;;;;;;;3.15;1.50;;;;;;;;;;5053568;28;20013;-35
2023/08/16 10:21:54;;;;;;;3.63;1.35;;;;;;;;;;5053286;28;20045;-35
2023/08/16 10:24:20;;;;;;;3.55;1.50;;;;;;;;;;5052833;28;20411;-35
2023/08/16 10:26:47;;;;;;;4.28;1.30;;;;;;;;;;5052789;28;20017;-35
2023/08/16 10:29:14;;;;;;;5.13;1.65;;;;;;;;;;5052950;28;20087;-35
2023/08/16 10:31:41;;;;;;;4.93;1.70;;;;;;;;;;5053361;28;20021;-35
2023/08/16 10:34:07;;;;;;;5.13;1.52;;;;;;;;;;5052905;28;20013;-35
2023/08/16 10:36:33;;;;;;;3.67;1.52;;;;;;;;;;5052120;28;20021;-35
2023/08/16 10:38:59;;;;;;;3.47;1.53;;;;;;;;;;5052158;28;20028;-35
2023/08/16 10:41:24;;;;;;;5.53;1.70;;;;;;;;;;5052614;28;20267;-36
2023/08/16 10:43:53;;;;;;;4.32;1.52;;;;;;;;;;5052954;28;20104;-35
2023/08/16 10:46:28;;;;;;;4.05;1.50;;;;;;;;;;5052871;28;20566;-35
2023/08/16 10:48:58;;;;;;;4.15;1.35;;;;;;;;;;5053717;28;20432;-35
2023/08/16 10:51:24;;;;;;;3.20;1.50;;;;;;;;;;5050863;28;20028;-34
2023/08/16 10:53:50;;;;;;;3.85;1.70;;;;;;;;;;5050595;28;20021;-34
2023/08/16 10:56:15;;;;;;;5.15;1.40;;;;;;;;;;5050452;28;20380;-34
2023/08/16 10:58:47;;;;;;;4.57;1.42;;;;;;;;;;5053461;28;20033;-35
2023/08/16 11:01:12;;;;;;;4.72;1.52;;;;;;;;;;5054419;28;20012;-35
2023/08/16 11:03:39;;;;;;;5.53;1.40;;;;;;;;;;5054669;28;20104;-35
2023/08/16 11:06:08;;;;;;;3.85;1.40;;;;;;;;;;5055285;28;20024;-34
2023/08/16 11:08:34;;;;;;;4.30;1.20;;;;;;;;;;5055848;28;20017;-35
2023/08/16 11:11:01;;;;;;;3.40;1.20;;;;;;;;;;5055216;28;20047;-35
2023/08/16 11:13:28;;;;;;;5.43;2.10;;;;;;;;;;5055688;28;20287;-35
2023/08/16 11:15:54;;;;;;;3.65;1.38;;;;;;;;;;5055352;28;20029;-35
2023/08/16 11:18:32;;;;;;;4.80;1.75;;;;;;;;;;5055499;28;20116;-35
2023/08/16 11:20:59;;;;;;;2.88;1.60;;;;;;;;;;5055868;28;20024;-36
2023/08/16 11:23:35;;;;;;;6.55;1.40;;;;;;;;;;5056079;28;20128;-36
2023/08/16 11:26:00;;;;;;;5.03;1.38;;;;;;;;;;5055768;28;20017;-35
2023/08/16 11:28:26;;;;;;;3.33;1.35;;;;;;;;;;5055707;28;20031;-36
2023/08/16 11:30:55;;;;;;;6.95;1.75;;;;;;;;;;5055875;28;20100;-36
2023/08/16 11:33:21;;;;;;;4.35;1.55;;;;;;;;;;5055915;28;20029;-35
2023/08/16 11:35:46;;;;;;;3.73;1.40;;;;;;;;;;5055602;28;20350;-35
2023/08/16 11:38:13;;;;;;;4.70;1.53;;;;;;;;;;5055441;28;20108;-35
2023/08/16 11:40:39;;;;;;;3.42;1.20;;;;;;;;;;5055715;28;20085;-34
2023/08/16 11:43:05;;;;;;;4.00;1.50;;;;;;;;;;5055702;28;20017;-34
2023/08/16 11:45:30;;;;;;;3.50;1.50;;;;;;;;;;5055378;28;20017;-35
2023/08/16 11:47:55;;;;;;;3.47;1.40;;;;;;;;;;5055388;28;20071;-35
2023/08/16 11:50:22;;;;;;;2.53;1.30;;;;;;;;;;5055339;28;20013;-35
2023/08/16 11:53:01;;;;;;;3.67;1.48;;;;;;;;;;5055295;28;20110;-35
2023/08/16 11:55:29;;;;;;;4.70;1.42;;;;;;;;;;5054013;28;20467;-35
2023/08/16 11:58:00;;;;;;;4.53;1.50;;;;;;;;;;5055397;28;20021;-35
2023/08/16 12:00:26;;;;;;;4.97;1.80;;;;;;;;;;5055625;28;20020;-35
2023/08/16 12:02:51;;;;;;;10.55;1.88;;;;;;;;;;5055056;28;20375;-35
2023/08/16 12:05:17;;;;;;;3.28;1.23;;;;;;;;;;5055266;28;20021;-35
2023/08/16 12:07:43;;;;;;;4.07;1.40;;;;;;;;;;5055322;28;20493;-35
2023/08/16 12:10:08;;;;;;;3.35;1.50;;;;;;;;;;5055165;28;20096;-35
2023/08/16 12:12:33;;;;;;;6.40;1.38;;;;;;;;;;5054867;28;20049;-35
2023/08/16 12:14:58;;;;;;;4.68;1.40;;;;;;;;;;5055109;28;20021;-35
2023/08/16 12:17:24;;;;;;;3.47;1.43;;;;;;;;;;5054804;28;20517;-36
2023/08/16 12:19:50;;;;;;;3.50;1.33;;;;;;;;;;5055013;28;20058;-35
2023/08/16 12:22:15;;;;;;;4.93;1.50;;;;;;;;;;5054764;28;20028;-35
2023/08/16 12:24:40;;;;;;;4.60;1.30;;;;;;;;;;5054630;28;20151;-35
2023/08/16 12:27:05;;;;;;;3.60;1.27;;;;;;;;;;5054617;28;20482;-35
2023/08/16 12:29:31;;;;;;;3.60;1.40;;;;;;;;;;5054722;28;20024;-35
2023/08/16 12:31:56;;;;;;;4.97;1.67;;;;;;;;;;5055079;28;20418;-36
2023/08/16 12:34:21;;;;;;;5.47;1.60;;;;;;;;;;5054661;28;20025;-35
2023/08/16 12:36:47;;;;;;;2.42;1.45;;;;;;;;;;5054687;28;20017;-35
2023/08/16 12:39:12;;;;;;;5.80;1.38;;;;;;;;;;5054393;28;20092;-35
2023/08/16 12:41:37;;;;;;;2.43;1.40;;;;;;;;;;5054357;28;20021;-35
2023/08/16 12:44:03;;;;;;;5.77;1.57;;;;;;;;;;5054538;28;20286;-35
2023/08/16 12:46:29;;;;;;;3.70;1.50;;;;;;;;;;5054384;28;20247;-35
2023/08/16 12:48:54;;;;;;;3.13;1.50;;;;;;;;;;5054757;28;20467;-35
2023/08/16 12:51:19;;;;;;;4.87;1.67;;;;;;;;;;5054430;28;20778;-35
2023/08/16 12:53:44;;;;;;;4.50;1.57;;;;;;;;;;5054371;28;20496;-35
2023/08/16 12:56:10;;;;;;;4.78;1.60;;;;;;;;;;5054394;28;20074;-35
2023/08/16 12:58:35;;;;;;;3.83;1.67;;;;;;;;;;5052743;28;20017;-35
2023/08/16 13:01:00;;;;;;;3.00;1.40;;;;;;;;;;5052812;28;20368;-35
2023/08/16 13:03:25;;;;;;;4.35;1.50;;;;;;;;;;5054278;28;20013;-35
2023/08/16 13:05:51;;;;;;;4.77;1.40;;;;;;;;;;5054506;28;20013;-35
2023/08/16 13:08:16;;;;;;;6.32;1.60;;;;;;;;;;5053879;28;20032;-35
2023/08/16 13:10:41;;;;;;;3.30;1.50;;;;;;;;;;5054159;28;20031;-35
2023/08/16 13:13:06;;;;;;;3.20;1.43;;;;;;;;;;5054390;28;20283;-35
2023/08/16 13:15:32;;;;;;;2.53;1.35;;;;;;;;;;5053750;28;20047;-36
2023/08/16 13:17:57;;;;;;;2.53;1.40;;;;;;;;;;5053696;28;20070;-37
2023/08/16 13:20:25;;;;;;;3.37;1.70;;;;;;;;;;5053762;28;20104;-35
2023/08/16 13:22:50;;;;;;;3.80;1.60;;;;;;;;;;5053872;28;20012;-42
2023/08/16 13:25:15;;;;;;;2.67;1.40;;;;;;;;;;5053911;28;20096;-35
2023/08/16 13:27:41;;;;;;;3.83;1.40;;;;;;;;;;5053896;28;20017;-35
2023/08/16 13:30:06;;;;;;;4.53;1.27;;;;;;;;;;5054276;28;20021;-35
2023/08/16 13:32:32;;;;;;;4.93;1.23;;;;;;;;;;5053540;28;20021;-35
2023/08/16 13:34:58;;;;;;;3.55;1.23;;;;;;;;;;5053394;28;20021;-35
2023/08/16 13:37:23;;;;;;;4.97;1.23;;;;;;;;;;5053523;28;20029;-35
2023/08/16 13:39:48;;;;;;;3.00;1.30;;;;;;;;;;5053390;28;20013;-35
2023/08/16 13:42:13;;;;;;;3.28;1.30;;;;;;;;;;5053568;28;20031;-34
2023/08/16 13:44:41;;;;;;;3.93;1.40;;;;;;;;;;5053900;28;20044;-35
2023/08/16 13:47:06;;;;;;;3.47;1.17;;;;;;;;;;5053579;28;20247;-35
2023/08/16 13:49:31;;;;;;;3.70;1.38;;;;;;;;;;5053599;28;20095;-35
2023/08/16 13:51:57;;;;;;;6.60;1.70;;;;;;;;;;5053175;28;20024;-36
2023/08/16 13:54:22;;;;;;;3.87;1.50;;;;;;;;;;5053281;28;20013;-36
2023/08/16 13:56:47;;;;;;;3.93;1.67;;;;;;;;;;5053146;28;20260;-35
2023/08/16 13:59:13;;;;;;;2.80;1.48;;;;;;;;;;5053380;28;20279;-39
2023/08/16 14:01:38;;;;;;;3.92;1.48;;;;;;;;;;5053466;28;20024;-35
2023/08/16 14:04:03;;;;;;;2.83;1.10;;;;;;;;;;5053417;28;20013;-35
2023/08/16 14:06:29;;;;;;;3.13;1.17;;;;;;;;;;5053376;28;20364;-36
2023/08/16 14:08:54;;;;;;;4.37;1.20;;;;;;;;;;5053381;28;20024;-36
2023/08/16 14:11:19;;;;;;;1.87;1.17;;;;;;;;;;5052923;28;20048;-35
2023/08/16 14:13:44;;;;;;;3.42;1.25;;;;;;;;;;5053031;28;20017;-34
2023/08/16 14:16:09;;;;;;;2.90;1.20;;;;;;;;;;5052993;28;20032;-34
2023/08/16 14:18:37;;;;;;;2.10;1.10;;;;;;;;;;5053423;28;20291;-34
2023/08/16 14:21:02;;;;;;;4.32;1.40;;;;;;;;;;5053059;28;20478;-36
2023/08/16 14:23:27;;;;;;;2.92;1.30;;;;;;;;;;5054042;28;20017;-34
2023/08/16 14:25:53;;;;;;;3.67;1.40;;;;;;;;;;5052830;28;20023;-35
2023/08/16 14:28:18;;;;;;;2.87;1.50;;;;;;;;;;5053180;28;20788;-35
2023/08/16 14:30:46;;;;;;;4.75;1.20;;;;;;;;;;5052817;28;20025;-35
2023/08/16 14:33:12;;;;;;;3.45;1.40;;;;;;;;;;5055341;28;20028;-35
2023/08/16 14:35:40;;;;;;;3.72;1.25;;;;;;;;;;5056676;28;20021;-34